createdAt,value
2022-10-25T00:00:16.555Z,42.70
2022-10-25T00:02:26.892Z,42.58
2022-10-25T00:04:33.355Z,41.83
2022-10-25T00:06:40.528Z,42.78
2022-10-25T00:08:48.784Z,44.25
2022-10-25T00:10:55.243Z,48.67
2022-10-25T00:13:02.018Z,50.75
2022-10-25T00:15:09.465Z,51.08
2022-10-25T00:17:16.126Z,53.95
2022-10-25T00:19:22.552Z,50.05
2022-10-25T00:21:29.976Z,47.22
2022-10-25T00:23:36.433Z,45.72
2022-10-25T00:25:45.587Z,46.13
2022-10-25T00:27:52.555Z,42.90
2022-10-25T00:29:59.442Z,43.28
2022-10-25T00:32:06.121Z,40.08
2022-10-25T00:34:12.599Z,40.67
2022-10-25T00:36:20.865Z,41.78
2022-10-25T00:38:27.463Z,40.20
2022-10-25T00:40:34.272Z,39.90
2022-10-25T00:42:42.340Z,42.05
2022-10-25T00:44:58.021Z,40.20
2022-10-25T00:47:05.482Z,40.42
2022-10-25T00:49:18.340Z,42.08
2022-10-25T00:51:30.203Z,42.10
2022-10-25T00:55:48.455Z,40.65
2022-10-25T00:58:02.385Z,38.97
2022-10-25T01:00:11.190Z,39.08
2022-10-25T01:02:19.699Z,39.55
2022-10-25T01:04:29.595Z,40.35
2022-10-25T01:06:40.828Z,40.58
2022-10-25T01:08:48.288Z,39.53
2022-10-25T01:10:54.766Z,38.42
2022-10-25T01:13:04.843Z,38.88
2022-10-25T01:15:12.801Z,37.90
2022-10-25T01:17:33.465Z,37.15
2022-10-25T01:20:02.156Z,37.75
2022-10-25T01:22:11.717Z,37.42
2022-10-25T01:24:49.541Z,38.13
2022-10-25T01:27:23.838Z,38.38
2022-10-25T01:29:55.286Z,36.40
2022-10-25T01:32:09.086Z,36.72
2022-10-25T01:34:19.780Z,37.75
2022-10-25T01:36:33.815Z,37.30
2022-10-25T01:38:48.145Z,35.45
2022-10-25T01:41:02.664Z,35.63
2022-10-25T01:43:16.053Z,34.83
2022-10-25T01:45:27.615Z,32.28
2022-10-25T01:47:41.085Z,33.35
2022-10-25T01:49:55.610Z,33.53
2022-10-25T01:52:02.094Z,32.83
2022-10-25T01:54:22.260Z,32.65
2022-10-25T01:56:34.185Z,32.75
2022-10-25T01:58:49.033Z,31.17
2022-10-25T02:01:02.170Z,31.67
2022-10-25T02:03:23.940Z,31.50
2022-10-25T02:05:36.073Z,30.75
2022-10-25T02:07:45.301Z,31.08
2022-10-25T02:10:00.520Z,31.27
2022-10-25T02:12:10.533Z,31.65
2022-10-25T02:14:24.550Z,30.88
2022-10-25T02:16:47.156Z,32.10
2022-10-25T02:18:59.545Z,30.83
2022-10-25T02:21:08.310Z,31.02
2022-10-25T02:23:16.510Z,30.55
2022-10-25T02:25:24.611Z,31.45
2022-10-25T02:27:33.099Z,31.75
2022-10-25T02:29:40.756Z,30.08
2022-10-25T02:31:47.870Z,30.42
2022-10-25T02:33:56.013Z,32.08
2022-10-25T02:36:15.325Z,30.77
2022-10-25T02:38:22.255Z,31.52
2022-10-25T02:40:29.213Z,32.00
2022-10-25T02:42:35.691Z,30.33
2022-10-25T02:44:43.214Z,31.05
2022-10-25T02:46:49.881Z,29.52
2022-10-25T02:48:58.353Z,31.00
2022-10-25T02:51:04.972Z,30.17
2022-10-25T02:53:11.712Z,29.77
2022-10-25T02:55:18.292Z,30.30
2022-10-25T02:57:24.753Z,29.63
2022-10-25T02:59:31.305Z,29.15
2022-10-25T03:01:38.191Z,29.42
2022-10-25T03:03:44.992Z,29.80
2022-10-25T03:05:53.399Z,29.00
2022-10-25T03:07:59.856Z,29.63
2022-10-25T03:10:06.883Z,27.95
2022-10-25T03:12:13.325Z,29.77
2022-10-25T03:14:19.909Z,28.95
2022-10-25T03:16:26.550Z,28.95
2022-10-25T03:18:32.988Z,28.63
2022-10-25T03:20:39.913Z,27.50
2022-10-25T03:22:47.986Z,28.27
2022-10-25T03:24:54.935Z,28.40
2022-10-25T03:27:01.473Z,28.48
2022-10-25T03:29:07.931Z,28.00
2022-10-25T03:31:15.738Z,28.00
2022-10-25T03:33:22.329Z,28.75
2022-10-25T03:35:29.537Z,27.30
2022-10-25T03:37:36.008Z,28.17
2022-10-25T03:39:44.080Z,28.60
2022-10-25T03:41:50.581Z,27.67
2022-10-25T03:43:57.022Z,28.42
2022-10-25T03:46:03.766Z,29.25
2022-10-25T03:48:10.489Z,28.00
2022-10-25T03:50:17.461Z,27.35
2022-10-25T03:52:23.969Z,28.05
2022-10-25T03:54:30.709Z,27.83
2022-10-25T03:56:38.831Z,29.02
2022-10-25T03:58:45.660Z,28.80
2022-10-25T04:00:52.159Z,28.13
2022-10-25T04:03:02.133Z,27.52
2022-10-25T04:05:09.715Z,28.35
2022-10-25T04:07:16.198Z,29.33
2022-10-25T04:09:23.171Z,27.95
2022-10-25T04:11:29.594Z,27.98
2022-10-25T04:13:38.018Z,26.95
2022-10-25T04:15:44.458Z,27.17
2022-10-25T04:17:52.993Z,27.50
2022-10-25T04:19:59.540Z,27.23
2022-10-25T04:22:06.292Z,26.33
2022-10-25T04:24:12.892Z,26.63
2022-10-25T04:26:23.685Z,26.90
2022-10-25T04:28:30.313Z,26.83
2022-10-25T04:30:38.977Z,26.77
2022-10-25T04:32:45.823Z,25.65
2022-10-25T04:34:52.613Z,27.05
2022-10-25T04:36:59.071Z,25.70
2022-10-25T04:39:05.806Z,26.17
2022-10-25T04:41:13.584Z,26.92
2022-10-25T04:43:20.325Z,26.15
2022-10-25T04:45:26.748Z,25.35
2022-10-25T04:47:36.388Z,25.65
2022-10-25T04:49:42.885Z,26.33
2022-10-25T04:54:00.861Z,26.13
2022-10-25T04:56:09.242Z,25.30
2022-10-25T04:58:15.673Z,26.00
2022-10-25T05:00:23.196Z,25.63
2022-10-25T05:02:29.730Z,25.63
2022-10-25T05:04:38.158Z,26.00
2022-10-25T05:06:44.585Z,23.25
2022-10-25T05:08:53.416Z,23.60
2022-10-25T05:10:59.876Z,25.55
2022-10-25T05:13:06.781Z,24.17
2022-10-25T05:15:13.745Z,24.50
2022-10-25T05:17:20.411Z,24.23
2022-10-25T05:19:26.902Z,24.48
2022-10-25T05:21:36.479Z,24.30
2022-10-25T05:23:43.296Z,24.05
2022-10-25T05:25:49.815Z,24.08
2022-10-25T05:27:56.256Z,23.45
2022-10-25T05:30:02.753Z,23.52
2022-10-25T05:32:09.477Z,24.38
2022-10-25T05:34:15.942Z,22.95
2022-10-25T05:36:23.155Z,23.52
2022-10-25T05:38:34.302Z,22.27
2022-10-25T05:40:44.167Z,21.80
2022-10-25T05:42:50.662Z,21.90
2022-10-25T05:44:57.486Z,21.75
2022-10-25T05:47:03.977Z,23.25
2022-10-25T05:49:10.458Z,22.05
2022-10-25T05:51:32.967Z,22.45
2022-10-25T05:53:45.997Z,21.67
2022-10-25T05:55:52.422Z,22.33
2022-10-25T05:57:58.887Z,21.85
2022-10-25T06:00:05.646Z,22.52
2022-10-25T06:02:13.428Z,23.60
2022-10-25T06:04:20.514Z,22.23
2022-10-25T06:06:27.342Z,22.55
2022-10-25T06:08:33.882Z,23.52
2022-10-25T06:10:42.184Z,23.27
2022-10-25T06:12:49.343Z,22.02
2022-10-25T06:14:56.040Z,23.80
2022-10-25T06:17:02.497Z,23.40
2022-10-25T06:19:09.089Z,22.25
2022-10-25T06:21:16.720Z,22.27
2022-10-25T06:23:23.479Z,23.30
2022-10-25T06:25:29.947Z,23.25
2022-10-25T06:27:38.070Z,22.10
2022-10-25T06:29:44.530Z,23.73
2022-10-25T06:31:51.119Z,23.20
2022-10-25T06:33:57.583Z,23.88
2022-10-25T06:36:05.419Z,22.60
2022-10-25T06:38:12.270Z,24.10
2022-10-25T06:40:18.831Z,23.75
2022-10-25T06:42:25.340Z,23.63
2022-10-25T06:44:33.422Z,22.60
2022-10-25T06:47:11.578Z,23.20
2022-10-25T06:49:07.750Z,22.23
2022-10-25T06:51:14.616Z,23.42
2022-10-25T06:53:21.113Z,24.20
2022-10-25T06:55:27.635Z,23.65
2022-10-25T06:57:34.084Z,23.77
2022-10-25T06:59:42.647Z,23.35
2022-10-25T07:01:49.245Z,23.40
2022-10-25T07:03:56.197Z,23.40
2022-10-25T07:06:03.705Z,22.75
2022-10-25T07:08:10.201Z,23.67
2022-10-25T07:10:16.732Z,22.55
2022-10-25T07:12:23.561Z,22.88
2022-10-25T07:14:30.006Z,23.08
2022-10-25T07:16:38.106Z,22.27
2022-10-25T07:18:45.313Z,22.05
2022-10-25T07:20:51.791Z,22.92
2022-10-25T07:23:00.248Z,23.05
2022-10-25T07:27:14.786Z,22.38
2022-10-25T07:29:21.949Z,22.25
2022-10-25T07:31:30.780Z,23.50
2022-10-25T07:33:38.899Z,22.92
2022-10-25T07:35:59.029Z,23.38
2022-10-25T07:38:15.448Z,22.20
2022-10-25T07:40:21.883Z,22.23
2022-10-25T07:42:28.792Z,22.67
2022-10-25T07:44:35.353Z,22.85
2022-10-25T07:46:41.909Z,23.08
2022-10-25T07:48:50.637Z,22.58
2022-10-25T07:50:57.119Z,22.45
2022-10-25T07:53:03.876Z,22.90
2022-10-25T07:55:11.099Z,22.77
2022-10-25T07:57:17.994Z,22.15
2022-10-25T07:59:24.408Z,23.30
2022-10-25T08:01:32.199Z,23.60
2022-10-25T08:03:38.921Z,23.80
2022-10-25T08:05:53.638Z,22.95
2022-10-25T08:08:01.189Z,23.13
2022-10-25T08:10:08.128Z,23.25
2022-10-25T08:12:16.209Z,22.50
2022-10-25T08:14:25.526Z,22.05
2022-10-25T08:16:32.304Z,23.52
2022-10-25T08:18:39.001Z,23.63
2022-10-25T08:21:01.673Z,23.67
2022-10-25T08:23:09.697Z,23.95
2022-10-25T08:25:16.189Z,22.67
2022-10-25T08:27:23.717Z,23.80
2022-10-25T08:29:30.550Z,22.77
2022-10-25T08:31:37.618Z,22.02
2022-10-25T08:33:44.099Z,23.30
2022-10-25T08:35:52.235Z,22.00
2022-10-25T08:37:59.214Z,22.73
2022-10-25T08:40:05.945Z,22.42
2022-10-25T08:42:23.150Z,22.88
2022-10-25T08:44:40.031Z,22.77
2022-10-25T08:46:55.037Z,22.40
2022-10-25T08:49:08.244Z,22.58
2022-10-25T08:51:26.922Z,22.88
2022-10-25T08:53:38.990Z,22.42
2022-10-25T08:56:05.123Z,22.63
2022-10-25T08:58:19.316Z,22.92
2022-10-25T09:00:26.907Z,21.73
2022-10-25T09:02:42.377Z,23.65
2022-10-25T09:04:49.010Z,23.67
2022-10-25T09:07:09.381Z,22.58
2022-10-25T09:09:26.376Z,23.10
2022-10-25T09:11:45.899Z,23.17
2022-10-25T09:13:57.720Z,24.02
2022-10-25T09:16:13.787Z,23.63
2022-10-25T09:18:21.298Z,21.88
2022-10-25T09:20:31.548Z,22.50
2022-10-25T09:22:48.366Z,24.38
2022-10-25T09:25:02.699Z,22.92
2022-10-25T09:27:11.051Z,23.05
2022-10-25T09:29:26.934Z,22.98
2022-10-25T09:31:40.528Z,21.52
2022-10-25T09:33:50.242Z,21.92
2022-10-25T09:35:59.486Z,21.90
2022-10-25T09:38:15.418Z,20.10
2022-10-25T09:40:25.014Z,19.10
2022-10-25T09:42:37.289Z,21.13
2022-10-25T09:44:46.754Z,20.33
2022-10-25T09:46:58.024Z,19.27
2022-10-25T09:49:09.287Z,20.40
2022-10-25T09:51:24.014Z,20.60
2022-10-25T09:53:37.514Z,19.52
2022-10-25T09:55:52.016Z,20.48
2022-10-25T09:57:59.124Z,19.67
2022-10-25T10:00:06.528Z,20.25
2022-10-25T10:02:22.068Z,19.60
2022-10-25T10:04:38.765Z,19.75
2022-10-25T10:06:46.311Z,20.15
2022-10-25T10:08:56.645Z,21.65
2022-10-25T10:11:05.799Z,20.73
2022-10-25T10:13:21.182Z,20.27
2022-10-25T10:15:31.366Z,20.25
2022-10-25T10:17:37.817Z,19.35
2022-10-25T10:19:45.020Z,20.20
2022-10-25T10:21:53.862Z,19.23
2022-10-25T10:24:05.547Z,20.10
2022-10-25T10:26:17.895Z,19.45
2022-10-25T10:28:24.593Z,20.92
2022-10-25T10:30:33.626Z,20.63
2022-10-25T10:32:42.287Z,19.70
2022-10-25T10:34:55.477Z,20.42
2022-10-25T10:37:15.859Z,19.90
2022-10-25T10:39:27.490Z,20.58
2022-10-25T10:41:34.213Z,20.83
2022-10-25T10:43:40.652Z,22.23
2022-10-25T10:45:53.280Z,22.05
2022-10-25T10:48:00.768Z,21.90
2022-10-25T10:50:15.831Z,21.42
2022-10-25T10:52:33.332Z,22.02
2022-10-25T10:54:51.611Z,23.17
2022-10-25T10:57:00.063Z,25.20
2022-10-25T10:59:07.654Z,24.63
2022-10-25T11:01:15.914Z,25.20
2022-10-25T11:03:59.190Z,26.55
2022-10-25T11:06:14.264Z,26.00
2022-10-25T11:08:23.058Z,27.92
2022-10-25T11:10:33.388Z,26.15
2022-10-25T11:12:41.251Z,24.88
2022-10-25T11:14:47.900Z,25.27
2022-10-25T11:17:01.724Z,22.70
2022-10-25T11:19:28.574Z,21.42
2022-10-25T11:21:55.385Z,22.05
2022-10-25T11:24:11.118Z,20.75
2022-10-25T11:26:27.269Z,19.77
2022-10-25T11:28:49.325Z,20.30
2022-10-25T11:31:04.632Z,19.90
2022-10-25T11:33:37.776Z,19.52
2022-10-25T11:35:55.550Z,17.02
2022-10-25T11:38:08.667Z,16.95
2022-10-25T11:40:19.438Z,17.17
2022-10-25T11:42:52.995Z,16.38
2022-10-25T11:45:29.332Z,16.85
2022-10-25T11:47:46.745Z,15.80
2022-10-25T11:50:02.019Z,15.52
2022-10-25T11:52:23.284Z,15.32
2022-10-25T11:54:39.087Z,15.32
2022-10-25T11:56:55.428Z,15.10
2022-10-25T11:59:13.561Z,14.23
2022-10-25T12:01:36.914Z,14.38
2022-10-25T12:04:03.023Z,14.65
2022-10-25T12:06:18.957Z,15.82
2022-10-25T12:08:37.413Z,15.30
2022-10-25T12:12:59.925Z,15.63
2022-10-25T12:15:08.647Z,17.10
2022-10-25T12:17:22.685Z,17.80
2022-10-25T12:19:31.946Z,16.52
2022-10-25T12:21:45.355Z,17.13
2022-10-25T12:23:53.767Z,16.75
2022-10-25T12:26:04.964Z,17.83
2022-10-25T12:28:24.537Z,17.27
2022-10-25T12:30:34.344Z,17.42
2022-10-25T12:32:45.956Z,17.55
2022-10-25T12:37:06.230Z,17.17
2022-10-25T12:39:18.677Z,16.92
2022-10-25T12:41:28.895Z,17.45
2022-10-25T12:43:40.543Z,17.38
2022-10-25T12:46:10.748Z,17.33
2022-10-25T12:48:36.664Z,17.85
2022-10-25T12:51:12.989Z,17.83
2022-10-25T12:53:51.155Z,18.02
2022-10-25T12:56:05.050Z,17.25
2022-10-25T12:58:33.014Z,18.58
2022-10-25T13:00:45.436Z,20.00
2022-10-25T13:03:27.330Z,18.15
2022-10-25T13:06:12.417Z,19.17
2022-10-25T13:08:22.353Z,18.98
2022-10-25T13:10:29.559Z,20.15
2022-10-25T13:12:36.098Z,19.88
2022-10-25T13:14:48.344Z,19.60
2022-10-25T13:16:55.101Z,20.38
2022-10-25T13:19:53.964Z,19.42
2022-10-25T13:22:39.479Z,19.75
2022-10-25T13:24:46.796Z,20.08
2022-10-25T13:27:21.691Z,21.02
2022-10-25T13:29:51.221Z,21.38
2022-10-25T13:32:11.647Z,21.75
2022-10-25T13:34:33.488Z,22.08
2022-10-25T13:36:53.650Z,21.20
2022-10-25T13:39:09.922Z,21.95
2022-10-25T13:41:18.191Z,22.65
2022-10-25T13:43:25.658Z,23.13
2022-10-25T13:45:43.708Z,22.35
2022-10-25T13:47:52.102Z,21.35
2022-10-25T13:49:59.042Z,20.85
2022-10-25T13:52:08.171Z,19.83
2022-10-25T13:54:16.625Z,18.77
2022-10-25T13:56:39.809Z,18.40
2022-10-25T13:58:53.860Z,17.73
2022-10-25T14:01:01.200Z,17.77
2022-10-25T14:03:30.827Z,17.08
2022-10-25T14:06:25.125Z,16.88
2022-10-25T14:08:34.296Z,16.08
2022-10-25T14:10:43.706Z,17.08
2022-10-25T14:12:54.510Z,16.17
2022-10-25T14:15:06.421Z,16.50
2022-10-25T14:17:21.482Z,15.18
2022-10-25T14:19:37.636Z,16.15
2022-10-25T14:21:49.499Z,15.23
2022-10-25T14:23:57.217Z,15.50
2022-10-25T14:26:07.152Z,15.48
2022-10-25T14:28:18.041Z,15.52
2022-10-25T14:30:28.152Z,14.93
2022-10-25T14:32:34.691Z,15.70
2022-10-25T14:34:41.230Z,13.93
2022-10-25T14:36:52.109Z,13.88
2022-10-25T14:39:00.247Z,13.68
2022-10-25T14:41:15.248Z,14.30
2022-10-25T14:43:32.325Z,12.93
2022-10-25T14:45:38.792Z,13.82
2022-10-25T14:47:45.546Z,13.55
2022-10-25T14:49:52.286Z,13.57
2022-10-25T14:52:02.601Z,13.82
2022-10-25T14:54:20.998Z,13.77
2022-10-25T14:56:32.968Z,11.77
2022-10-25T14:58:45.568Z,12.43
2022-10-25T15:01:04.888Z,13.00
2022-10-25T15:03:14.975Z,12.30
2022-10-25T15:05:24.129Z,12.88
2022-10-25T15:07:34.497Z,12.25
2022-10-25T15:09:52.080Z,12.10
2022-10-25T15:12:21.936Z,12.05
2022-10-25T15:14:32.756Z,10.75
2022-10-25T15:16:43.404Z,11.98
2022-10-25T15:19:07.539Z,11.37
2022-10-25T15:21:16.310Z,11.40
2022-10-25T15:23:24.650Z,11.25
2022-10-25T15:25:34.440Z,11.98
2022-10-25T15:27:46.959Z,12.40
2022-10-25T15:29:53.424Z,13.07
2022-10-25T15:32:00.473Z,13.05
2022-10-25T15:34:08.714Z,12.40
2022-10-25T15:36:25.483Z,11.93
2022-10-25T15:38:48.189Z,13.35
2022-10-25T15:40:59.917Z,12.65
2022-10-25T15:43:08.059Z,12.18
2022-10-25T15:45:15.946Z,12.18
2022-10-25T15:47:32.623Z,11.35
2022-10-25T15:49:39.172Z,10.95
2022-10-25T15:51:47.378Z,10.77
2022-10-25T15:53:53.826Z,11.00
2022-10-25T15:56:00.446Z,11.13
2022-10-25T15:58:10.657Z,10.45
2022-10-25T16:00:18.557Z,10.13
2022-10-25T16:02:29.313Z,11.27
2022-10-25T16:04:35.730Z,10.30
2022-10-25T16:06:42.375Z,11.18
2022-10-25T16:08:48.821Z,10.75
2022-10-25T16:10:56.148Z,10.55
2022-10-25T16:13:05.400Z,11.20
2022-10-25T16:15:18.209Z,10.75
2022-10-25T16:17:24.657Z,10.95
2022-10-25T16:19:32.418Z,10.63
2022-10-25T16:21:38.878Z,10.55
2022-10-25T16:23:45.571Z,10.18
2022-10-25T16:25:52.211Z,11.02
2022-10-25T16:27:58.981Z,10.52
2022-10-25T16:30:05.423Z,11.43
2022-10-25T16:32:13.562Z,11.20
2022-10-25T16:34:20.472Z,11.00
2022-10-25T16:36:26.978Z,11.50
2022-10-25T16:38:33.424Z,11.10
2022-10-25T16:40:40.251Z,11.75
2022-10-25T16:42:47.090Z,11.52
2022-10-25T16:44:54.042Z,11.50
2022-10-25T16:47:00.878Z,10.48
2022-10-25T16:49:10.291Z,10.75
2022-10-25T16:51:17.922Z,11.02
2022-10-25T16:53:24.401Z,10.60
2022-10-25T16:55:31.978Z,10.57
2022-10-25T16:57:38.830Z,9.98
2022-10-25T16:59:45.458Z,9.65
2022-10-25T17:01:57.895Z,9.63
2022-10-25T17:04:05.239Z,9.60
2022-10-25T17:06:28.715Z,9.68
2022-10-25T17:08:40.190Z,8.80
2022-10-25T17:10:46.627Z,9.00
2022-10-25T17:12:56.628Z,9.07
2022-10-25T17:15:03.039Z,8.77
2022-10-25T17:17:09.856Z,8.35
2022-10-25T17:19:16.534Z,8.07
2022-10-25T17:21:25.010Z,7.90
2022-10-25T17:23:31.466Z,8.43
2022-10-25T17:25:38.288Z,7.63
2022-10-25T17:27:48.675Z,7.90
2022-10-25T17:29:55.297Z,9.02
2022-10-25T17:32:01.870Z,7.57
2022-10-25T17:34:08.459Z,8.30
2022-10-25T17:36:16.919Z,8.25
2022-10-25T17:38:25.049Z,7.13
2022-10-25T17:40:31.559Z,8.23
2022-10-25T17:42:37.992Z,8.73
2022-10-25T17:44:45.586Z,7.45
2022-10-25T17:46:53.003Z,7.82
2022-10-25T17:49:04.004Z,8.07
2022-10-25T17:51:12.888Z,7.90
2022-10-25T17:53:19.366Z,7.28
2022-10-25T17:55:33.167Z,7.50
2022-10-25T17:57:40.217Z,7.57
2022-10-25T17:59:47.070Z,7.13
2022-10-25T18:01:53.677Z,7.60
2022-10-25T18:04:00.654Z,7.93
2022-10-25T18:06:09.241Z,8.07
2022-10-25T18:08:15.903Z,8.13
2022-10-25T18:10:22.422Z,8.68
2022-10-25T18:12:31.319Z,8.23
2022-10-25T18:14:37.749Z,8.23
2022-10-25T18:16:44.698Z,7.57
2022-10-25T18:18:51.184Z,7.40
2022-10-25T18:20:57.845Z,8.02
2022-10-25T18:23:04.274Z,7.80
2022-10-25T18:25:11.749Z,8.18
2022-10-25T18:27:18.232Z,8.00
2022-10-25T18:29:26.547Z,7.70
2022-10-25T18:31:32.997Z,8.35
2022-10-25T18:33:41.752Z,8.13
2022-10-25T18:35:48.514Z,9.13
2022-10-25T18:37:55.131Z,8.13
2022-10-25T18:40:01.627Z,8.10
2022-10-25T18:42:08.321Z,8.23
2022-10-25T18:44:15.374Z,7.82
2022-10-25T18:46:24.366Z,7.90
2022-10-25T18:48:31.092Z,8.43
2022-10-25T18:50:41.780Z,8.60
2022-10-25T18:52:49.182Z,8.10
2022-10-25T18:54:56.184Z,8.10
2022-10-25T18:57:02.659Z,8.50
2022-10-25T18:59:09.983Z,8.55
2022-10-25T19:01:17.798Z,8.57
2022-10-25T19:03:26.004Z,7.95
2022-10-25T19:05:33.194Z,8.05
2022-10-25T19:07:39.824Z,8.18
2022-10-25T19:09:46.247Z,8.18
2022-10-25T19:11:52.709Z,9.15
2022-10-25T19:13:59.971Z,9.93
2022-10-25T19:16:07.293Z,9.50
2022-10-25T19:18:14.894Z,10.55
2022-10-25T19:20:23.080Z,9.65
2022-10-25T19:22:30.562Z,9.32
2022-10-25T19:24:38.690Z,9.35
2022-10-25T19:26:45.732Z,9.02
2022-10-25T19:28:59.213Z,8.88
2022-10-25T19:31:08.962Z,8.65
2022-10-25T19:33:15.461Z,7.90
2022-10-25T19:35:24.244Z,8.43
2022-10-25T19:37:30.722Z,7.80
2022-10-25T19:39:38.762Z,8.27
2022-10-25T19:41:45.190Z,8.35
2022-10-25T19:43:51.953Z,8.27
2022-10-25T19:46:00.387Z,8.63
2022-10-25T19:48:07.442Z,8.15
2022-10-25T19:50:14.167Z,7.80
2022-10-25T19:52:22.628Z,8.40
2022-10-25T19:54:29.071Z,7.65
2022-10-25T19:56:38.089Z,8.20
2022-10-25T19:58:44.542Z,8.60
2022-10-25T20:00:51.053Z,7.90
2022-10-25T20:02:57.500Z,8.52
2022-10-25T20:05:04.538Z,8.70
2022-10-25T20:07:11.057Z,8.85
2022-10-25T20:09:19.398Z,8.05
2022-10-25T20:11:27.234Z,8.30
2022-10-25T20:13:34.081Z,8.60
2022-10-25T20:15:40.530Z,6.63
2022-10-25T20:17:47.249Z,6.10
2022-10-25T20:19:53.842Z,6.63
2022-10-25T20:22:00.514Z,5.72
2022-10-25T20:24:08.893Z,5.70
2022-10-25T20:26:19.753Z,6.00
2022-10-25T20:28:26.245Z,5.97
2022-10-25T20:30:35.673Z,5.70
2022-10-25T20:32:42.121Z,6.25
2022-10-25T20:34:48.837Z,6.93
2022-10-25T20:36:55.298Z,6.30
2022-10-25T20:39:02.013Z,6.85
2022-10-25T20:41:09.651Z,6.57
2022-10-25T20:43:18.445Z,6.68
2022-10-25T20:45:25.325Z,6.28
2022-10-25T20:47:31.729Z,6.30
2022-10-25T20:49:38.425Z,5.93
2022-10-25T20:51:44.867Z,5.40
2022-10-25T20:53:51.980Z,5.20
2022-10-25T20:55:58.568Z,5.20
2022-10-25T20:58:05.230Z,5.38
2022-10-25T21:00:18.286Z,5.53
2022-10-25T21:02:27.309Z,4.45
2022-10-25T21:04:42.775Z,4.63
2022-10-25T21:06:59.697Z,4.60
2022-10-25T21:09:06.591Z,3.97
2022-10-25T21:11:15.617Z,5.13
2022-10-25T21:13:22.060Z,4.32
2022-10-25T21:15:30.190Z,4.93
2022-10-25T21:17:37.041Z,4.50
2022-10-25T21:19:43.754Z,4.07
2022-10-25T21:21:50.201Z,3.78
2022-10-25T21:24:00.354Z,4.15
2022-10-25T21:26:08.864Z,4.15
2022-10-25T21:28:15.579Z,3.97
2022-10-25T21:30:22.101Z,4.03
2022-10-25T21:32:30.655Z,4.90
2022-10-25T21:34:37.211Z,4.00
2022-10-25T21:36:43.941Z,4.22
2022-10-25T21:38:50.408Z,4.18
2022-10-25T21:40:57.418Z,4.05
2022-10-25T21:43:03.876Z,4.22
2022-10-25T21:45:11.519Z,3.88
2022-10-25T21:47:18.110Z,4.28
2022-10-25T21:49:26.711Z,4.53
2022-10-25T21:51:33.180Z,4.80
2022-10-25T21:53:39.682Z,5.40
2022-10-25T21:55:46.138Z,5.35
2022-10-25T21:57:54.501Z,5.38
2022-10-25T22:00:01.450Z,5.65
2022-10-25T22:02:18.969Z,5.28
2022-10-25T22:04:28.745Z,6.60
2022-10-25T22:06:35.495Z,6.40
2022-10-25T22:08:42.309Z,7.10
2022-10-25T22:13:09.795Z,7.32
2022-10-25T22:15:16.499Z,7.75
2022-10-25T22:17:24.097Z,7.55
2022-10-25T22:19:32.240Z,7.43
2022-10-25T22:21:40.982Z,7.22
2022-10-25T22:23:47.455Z,7.80
2022-10-25T22:25:53.956Z,7.05
2022-10-25T22:28:00.632Z,6.75
2022-10-25T22:30:07.535Z,6.93
2022-10-25T22:32:14.009Z,6.40
2022-10-25T22:34:20.483Z,6.13
2022-10-25T22:36:30.242Z,6.00
2022-10-25T22:38:36.994Z,5.80
2022-10-25T22:40:43.445Z,6.00
2022-10-25T22:42:50.164Z,6.18
2022-10-25T22:44:56.625Z,6.10
2022-10-25T22:47:03.058Z,6.03
2022-10-25T22:49:11.640Z,6.43
2022-10-25T22:51:18.613Z,6.82
2022-10-25T22:53:26.743Z,6.07
2022-10-25T22:55:33.256Z,6.60
2022-10-25T22:57:39.728Z,6.57
2022-10-25T22:59:46.499Z,6.38
2022-10-25T23:01:52.912Z,7.28
2022-10-25T23:04:01.338Z,6.82
2022-10-25T23:06:08.697Z,7.07
2022-10-25T23:08:15.336Z,8.00
2022-10-25T23:10:23.449Z,8.00
2022-10-25T23:12:29.895Z,8.35
2022-10-25T23:14:36.738Z,8.30
2022-10-25T23:16:43.161Z,9.25
2022-10-25T23:18:50.100Z,9.13
2022-10-25T23:20:58.381Z,9.48
2022-10-25T23:23:05.371Z,8.95
2022-10-25T23:25:12.433Z,10.00
2022-10-25T23:27:20.776Z,9.75
2022-10-25T23:29:27.232Z,10.23
2022-10-25T23:31:34.575Z,10.00
2022-10-25T23:33:41.399Z,10.52
2022-10-25T23:35:48.120Z,10.73
2022-10-25T23:37:54.552Z,11.10
2022-10-25T23:40:01.459Z,11.43
2022-10-25T23:42:07.982Z,12.32
2022-10-25T23:44:16.531Z,11.50
2022-10-25T23:46:23.052Z,11.57
2022-10-25T23:48:30.065Z,11.98
2022-10-25T23:50:36.495Z,11.10
2022-10-25T23:52:43.344Z,12.02
2022-10-25T23:54:49.787Z,10.30
2022-10-25T23:56:56.254Z,10.38
2022-10-25T23:59:03.034Z,9.95
